Time;durP1;ratioP1;P1;durP2;ratioP2;P2;SDS_P1;SDS_P2;PMS_P1;PMS_P2;Temp;Humidity;BMP_temperature;BMP_pressure;BME280_temperature;BME280_humidity;BME280_pressure;Samples;Min_cycle;Max_cycle;Signal;HPM_P1;HPM_P2
2022/07/15 00:00:47;;;;;;;4.40;1.70;;;25.70;78.50;;;;;;6187174;23;20012;-91
2022/07/15 00:03:13;;;;;;;2.85;1.77;;;25.80;78.60;;;;;;6185252;23;20035;-91
2022/07/15 00:05:42;;;;;;;3.20;1.80;;;25.70;78.60;;;;;;6185021;23;20005;-91
2022/07/15 00:08:08;;;;;;;5.40;2.15;;;25.80;78.60;;;;;;6185123;23;20005;-91
2022/07/15 00:10:37;;;;;;;2.60;1.50;;;25.70;78.50;;;;;;6185152;23;20007;-91
2022/07/15 00:13:03;;;;;;;3.53;1.98;;;25.70;78.50;;;;;;6184648;23;20002;-91
2022/07/15 00:15:32;;;;;;;2.08;1.50;;;25.70;78.40;;;;;;6184223;23;20016;-91
2022/07/15 00:18:01;;;;;;;2.85;1.58;;;25.70;78.40;;;;;;6184510;23;20088;-91
2022/07/15 00:20:33;;;;;;;3.00;1.65;;;25.70;78.40;;;;;;6185112;23;20055;-91
2022/07/15 00:23:03;;;;;;;3.10;1.70;;;25.70;78.30;;;;;;6185186;23;20001;-91
2022/07/15 00:25:29;;;;;;;3.15;1.83;;;25.70;78.40;;;;;;6185049;23;20060;-91
2022/07/15 00:28:01;;;;;;;2.85;1.70;;;25.70;78.40;;;;;;6185074;23;20038;-91
2022/07/15 00:30:35;;;;;;;2.75;1.85;;;25.70;78.30;;;;;;6185159;23;20005;-90
2022/07/15 00:33:02;;;;;;;3.63;1.90;;;25.60;78.30;;;;;;6160076;23;20005;-92
2022/07/15 00:35:29;;;;;;;4.10;1.73;;;25.60;78.20;;;;;;6184309;23;20020;-91
2022/07/15 00:37:55;;;;;;;2.72;1.70;;;25.60;78.20;;;;;;6184194;23;20009;-91
2022/07/15 00:40:20;;;;;;;2.88;1.85;;;25.60;78.30;;;;;;6185391;23;20016;-90
2022/07/15 00:42:47;;;;;;;3.03;1.55;;;25.60;78.40;;;;;;6184325;23;20001;-91
2022/07/15 00:45:18;;;;;;;3.10;1.70;;;25.60;78.20;;;;;;6186116;23;20016;-91
2022/07/15 00:47:53;;;;;;;3.95;1.73;;;25.60;78.30;;;;;;6185363;23;19997;-91
2022/07/15 00:50:20;;;;;;;5.53;1.60;;;25.60;78.20;;;;;;6184901;23;20012;-91
2022/07/15 00:52:55;;;;;;;4.25;1.88;;;25.60;78.20;;;;;;6184652;23;20092;-91
2022/07/15 00:55:23;;;;;;;4.47;1.83;;;25.50;78.20;;;;;;6184470;23;20005;-91
2022/07/15 00:57:51;;;;;;;3.63;1.50;;;25.50;78.30;;;;;;6185219;23;20005;-90
2022/07/15 01:00:17;;;;;;;2.60;1.60;;;25.50;78.20;;;;;;6184755;23;20091;-91
2022/07/15 01:02:50;;;;;;;2.83;1.70;;;25.50;78.20;;;;;;6185881;23;20027;-91
2022/07/15 01:05:18;;;;;;;2.63;1.50;;;25.50;78.30;;;;;;6185232;23;20420;-91
2022/07/15 01:07:45;;;;;;;2.38;1.80;;;25.50;78.40;;;;;;6185789;23;20059;-91
2022/07/15 01:10:10;;;;;;;3.03;1.90;;;25.50;78.30;;;;;;6186819;23;20511;-91
2022/07/15 01:12:37;;;;;;;2.95;1.73;;;25.50;78.50;;;;;;6186177;23;20040;-90
2022/07/15 01:15:07;;;;;;;3.22;1.85;;;25.50;78.30;;;;;;6186315;23;20063;-90
2022/07/15 01:17:33;;;;;;;2.92;1.67;;;25.50;78.20;;;;;;6186481;23;20452;-90
2022/07/15 01:19:59;;;;;;;3.88;1.75;;;25.50;78.40;;;;;;6186116;23;20189;-91
2022/07/15 01:22:25;;;;;;;4.75;1.90;;;25.50;78.40;;;;;;6186774;23;20453;-90
2022/07/15 01:24:51;;;;;;;2.80;1.60;;;25.40;78.20;;;;;;6186553;23;20064;-91
2022/07/15 01:27:17;;;;;;;2.17;1.50;;;25.50;78.40;;;;;;6186332;23;20009;-90
2022/07/15 01:29:43;;;;;;;3.28;1.50;;;25.50;78.40;;;;;;6186617;23;20436;-91
2022/07/15 01:32:09;;;;;;;4.38;1.63;;;25.50;78.40;;;;;;6186054;23;20080;-90
2022/07/15 01:34:34;;;;;;;3.22;1.77;;;25.40;78.20;;;;;;6185976;23;20017;-91
2022/07/15 01:37:00;;;;;;;2.72;1.70;;;25.40;78.30;;;;;;6186306;23;20013;-91
2022/07/15 01:39:26;;;;;;;3.47;1.67;;;25.40;78.30;;;;;;6185641;23;20009;-91
2022/07/15 01:41:52;;;;;;;2.70;1.80;;;25.40;78.20;;;;;;6186278;23;20012;-91
2022/07/15 01:44:17;;;;;;;2.80;1.60;;;25.40;78.10;;;;;;6185743;23;20092;-90
2022/07/15 01:46:43;;;;;;;2.90;1.80;;;25.40;78.20;;;;;;6186177;23;20306;-91
2022/07/15 01:49:31;;;;;;;2.60;1.60;;;25.40;78.20;;;;;;6186341;23;20005;-91
2022/07/15 01:51:58;;;;;;;4.07;2.10;;;25.40;78.20;;;;;;6186127;23;20076;-90
2022/07/15 01:54:26;;;;;;;3.33;1.88;;;25.30;78.20;;;;;;6185945;23;20007;-90
2022/07/15 01:56:53;;;;;;;3.67;1.70;;;25.30;78.20;;;;;;6186113;23;20001;-90
2022/07/15 01:59:22;;;;;;;3.13;1.60;;;25.30;78.20;;;;;;6186050;23;20004;-91
2022/07/15 02:01:49;;;;;;;3.13;1.70;;;25.30;78.20;;;;;;6186123;23;20001;-90
2022/07/15 02:04:15;;;;;;;3.42;1.75;;;25.30;78.10;;;;;;6186169;23;20016;-90
2022/07/15 02:06:41;;;;;;;3.72;1.85;;;25.30;78.10;;;;;;6186218;23;20039;-90
2022/07/15 02:09:07;;;;;;;3.05;1.60;;;25.30;78.10;;;;;;6187372;23;19997;-90
2022/07/15 02:11:34;;;;;;;2.63;1.40;;;25.30;78.20;;;;;;6186399;23;20008;-90
2022/07/15 02:14:01;;;;;;;3.25;1.60;;;25.20;78.10;;;;;;6185600;23;20028;-90
2022/07/15 02:16:31;;;;;;;2.58;1.67;;;25.20;78.00;;;;;;6185633;23;20005;-90
2022/07/15 02:19:00;;;;;;;3.70;1.58;;;25.30;78.20;;;;;;6185814;23;20005;-91
2022/07/15 02:21:26;;;;;;;5.63;1.77;;;25.20;78.10;;;;;;6185725;23;20001;-91
2022/07/15 02:23:53;;;;;;;3.08;1.50;;;25.20;78.10;;;;;;6185609;23;20425;-90
2022/07/15 02:26:20;;;;;;;2.40;1.58;;;25.20;78.20;;;;;;6185878;23;20425;-90
2022/07/15 02:28:46;;;;;;;6.32;2.13;;;25.20;78.20;;;;;;6185796;23;20028;-90
2022/07/15 02:31:11;;;;;;;2.90;1.73;;;25.20;78.20;;;;;;6185486;23;20413;-91
2022/07/15 02:33:39;;;;;;;4.97;1.55;;;25.20;78.10;;;;;;6185725;23;20001;-90
2022/07/15 02:36:08;;;;;;;3.67;1.95;;;25.10;78.10;;;;;;6185698;23;20459;-90
2022/07/15 02:38:34;;;;;;;2.97;1.60;;;25.20;78.10;;;;;;6185457;23;20011;-91
2022/07/15 02:41:00;;;;;;;3.22;1.80;;;25.10;78.20;;;;;;6186069;23;20036;-91
2022/07/15 02:43:25;;;;;;;3.35;1.65;;;25.10;78.10;;;;;;6185504;23;20001;-90
2022/07/15 02:45:51;;;;;;;3.17;1.65;;;25.10;78.10;;;;;;6185177;23;20013;-90
2022/07/15 02:48:17;;;;;;;3.25;1.48;;;25.10;78.20;;;;;;6185150;23;20001;-90
2022/07/15 02:50:42;;;;;;;3.22;1.70;;;25.10;78.30;;;;;;6185952;23;19997;-90
2022/07/15 02:53:11;;;;;;;3.28;1.70;;;25.10;78.20;;;;;;6184906;23;20008;-90
2022/07/15 02:55:37;;;;;;;3.47;1.70;;;25.10;78.20;;;;;;6185021;23;20452;-90
2022/07/15 02:58:04;;;;;;;2.55;1.63;;;25.00;78.10;;;;;;6185257;23;20005;-90
2022/07/15 03:00:30;;;;;;;5.70;1.83;;;25.00;78.20;;;;;;6185360;23;20009;-91
2022/07/15 03:02:56;;;;;;;3.10;1.48;;;25.00;78.20;;;;;;6185172;23;20001;-90
2022/07/15 03:05:21;;;;;;;4.63;1.60;;;25.00;79.00;;;;;;6184921;23;20080;-90
2022/07/15 03:07:47;;;;;;;4.80;1.70;;;25.00;78.30;;;;;;6185196;23;20080;-91
2022/07/15 03:10:14;;;;;;;3.55;1.60;;;25.00;78.30;;;;;;6185621;23;20333;-90
2022/07/15 03:12:40;;;;;;;3.40;1.55;;;25.00;78.30;;;;;;6185261;23;20131;-90
2022/07/15 03:15:06;;;;;;;3.97;1.50;;;25.00;78.30;;;;;;6184601;23;20457;-90
2022/07/15 03:17:32;;;;;;;4.45;1.63;;;25.00;78.30;;;;;;6185685;23;20009;-90
2022/07/15 03:20:00;;;;;;;3.28;1.50;;;25.00;78.30;;;;;;6185658;23;20008;-90
2022/07/15 03:22:29;;;;;;;3.08;1.50;;;25.00;78.30;;;;;;6186378;23;20001;-90
2022/07/15 03:24:55;;;;;;;4.20;1.95;;;24.90;78.30;;;;;;6184874;23;20499;-90
2022/07/15 03:27:21;;;;;;;2.72;1.42;;;24.90;78.40;;;;;;6185477;23;20071;-90
2022/07/15 03:29:47;;;;;;;4.15;1.80;;;24.90;78.30;;;;;;6184808;23;20483;-90
2022/07/15 03:32:15;;;;;;;2.92;1.77;;;24.90;78.20;;;;;;6185320;23;20008;-90
2022/07/15 03:34:41;;;;;;;3.05;1.75;;;24.90;78.20;;;;;;6184802;23;20009;-90
2022/07/15 03:37:07;;;;;;;2.00;1.30;;;24.90;78.20;;;;;;6185100;23;20009;-90
2022/07/15 03:39:33;;;;;;;2.42;1.42;;;24.90;78.30;;;;;;6185185;23;20012;-91
2022/07/15 03:41:59;;;;;;;3.30;1.70;;;24.90;78.30;;;;;;6185536;23;20020;-91
2022/07/15 03:44:24;;;;;;;2.65;1.48;;;24.90;78.30;;;;;;6185352;23;20005;-90
2022/07/15 03:46:53;;;;;;;3.75;1.50;;;24.80;78.30;;;;;;6185029;23;20055;-91
2022/07/15 03:49:19;;;;;;;5.47;1.58;;;24.80;78.30;;;;;;6184511;23;20088;-90
2022/07/15 03:51:45;;;;;;;4.63;1.60;;;24.90;78.30;;;;;;6185278;23;20094;-90
2022/07/15 03:54:11;;;;;;;4.78;2.70;;;24.80;78.40;;;;;;6185096;23;20001;-90
2022/07/15 03:56:37;;;;;;;3.10;2.03;;;24.90;78.30;;;;;;6184513;23;20016;-90
2022/07/15 03:59:03;;;;;;;3.92;2.50;;;24.80;78.30;;;;;;6184426;23;20059;-90
2022/07/15 04:01:29;;;;;;;3.35;2.13;;;24.80;78.30;;;;;;6184859;23;20379;-90
2022/07/15 04:03:55;;;;;;;3.53;1.83;;;24.80;78.30;;;;;;6185067;23;20008;-90
2022/07/15 04:06:21;;;;;;;4.03;1.85;;;24.80;79.10;;;;;;6184683;23;20008;-90
2022/07/15 04:08:47;;;;;;;3.85;2.03;;;24.70;78.30;;;;;;6185115;23;20005;-90
2022/07/15 04:11:15;;;;;;;4.78;2.05;;;24.80;78.30;;;;;;6184834;23;20448;-90
2022/07/15 04:13:41;;;;;;;3.63;1.60;;;24.70;78.20;;;;;;6184792;23;20440;-90
2022/07/15 04:16:08;;;;;;;2.45;1.50;;;24.70;78.30;;;;;;6184411;23;20071;-91
2022/07/15 04:18:34;;;;;;;3.03;1.70;;;24.70;78.30;;;;;;6184314;23;20035;-90
2022/07/15 04:21:01;;;;;;;2.80;1.45;;;24.70;78.30;;;;;;6184818;23;20009;-90
2022/07/15 04:23:27;;;;;;;4.72;1.80;;;24.70;78.30;;;;;;6184428;23;20005;-90
2022/07/15 04:25:53;;;;;;;6.82;2.05;;;24.70;78.30;;;;;;6183992;23;20009;-90
2022/07/15 04:28:21;;;;;;;3.17;1.65;;;24.70;78.30;;;;;;6184738;23;20414;-90
2022/07/15 04:30:47;;;;;;;2.53;1.65;;;24.60;78.20;;;;;;6184637;23;20024;-90
2022/07/15 04:33:15;;;;;;;2.45;1.70;;;24.60;78.20;;;;;;6184650;23;20445;-90
2022/07/15 04:35:41;;;;;;;5.45;1.77;;;24.70;78.20;;;;;;6184535;23;20437;-91
2022/07/15 04:38:07;;;;;;;3.88;1.73;;;24.60;78.10;;;;;;6184250;23;20059;-91
2022/07/15 04:40:34;;;;;;;3.22;1.70;;;24.70;78.10;;;;;;6184899;23;20371;-90
2022/07/15 04:43:00;;;;;;;3.00;1.70;;;24.60;78.00;;;;;;6162491;23;20009;-90
2022/07/15 04:45:29;;;;;;;2.60;1.40;;;24.60;78.20;;;;;;6186139;23;20044;-90
2022/07/15 04:47:55;;;;;;;3.35;1.55;;;24.60;78.10;;;;;;6186542;23;20318;-93
2022/07/15 04:53:06;;;;;;;4.82;1.80;;;24.60;78.20;;;;;;6187651;23;20016;-91
2022/07/15 04:55:32;;;;;;;3.22;1.90;;;24.60;78.20;;;;;;6186717;23;20009;-90
2022/07/15 04:57:58;;;;;;;3.65;1.60;;;24.60;78.20;;;;;;6186216;23;20012;-91
2022/07/15 05:00:23;;;;;;;5.70;1.50;;;24.60;78.20;;;;;;6187005;23;20482;-91
2022/07/15 05:02:49;;;;;;;2.70;1.40;;;24.60;78.20;;;;;;6186800;23;20001;-90
2022/07/15 05:05:15;;;;;;;3.47;1.58;;;24.60;78.10;;;;;;6186614;23;20340;-91
2022/07/15 05:07:45;;;;;;;5.97;1.88;;;24.50;78.10;;;;;;6187298;23;20325;-90
2022/07/15 05:10:11;;;;;;;4.10;1.50;;;24.50;78.00;;;;;;6186272;23;20005;-90
2022/07/15 05:12:40;;;;;;;3.65;1.80;;;24.60;78.00;;;;;;6186564;23;20001;-90
2022/07/15 05:15:06;;;;;;;3.15;1.60;;;24.60;78.10;;;;;;6186436;23;20021;-91
2022/07/15 05:17:33;;;;;;;5.80;1.65;;;24.60;78.00;;;;;;6186195;23;20004;-90
2022/07/15 05:20:00;;;;;;;4.60;1.45;;;24.50;78.00;;;;;;6186787;23;20005;-91
2022/07/15 05:22:26;;;;;;;5.53;1.60;;;24.60;78.00;;;;;;6186320;23;20344;-90
2022/07/15 05:24:52;;;;;;;2.88;1.80;;;24.50;78.00;;;;;;6185968;23;20013;-91
2022/07/15 05:27:17;;;;;;;4.10;1.70;;;24.50;77.90;;;;;;6186100;23;20384;-91
2022/07/15 05:29:44;;;;;;;3.22;1.80;;;24.50;78.00;;;;;;6186541;23;20001;-90
2022/07/15 05:32:10;;;;;;;4.10;1.65;;;24.50;78.00;;;;;;6186053;23;20001;-91
2022/07/15 05:34:36;;;;;;;2.67;1.50;;;24.50;78.00;;;;;;6186666;23;20024;-91
2022/07/15 05:37:02;;;;;;;3.75;1.80;;;24.50;77.90;;;;;;6186303;23;20024;-90
2022/07/15 05:39:28;;;;;;;10.98;1.90;;;24.50;78.00;;;;;;6186059;23;20009;-90
2022/07/15 05:41:54;;;;;;;3.95;1.58;;;24.50;77.90;;;;;;6185933;23;20012;-90
2022/07/15 05:44:20;;;;;;;5.03;2.00;;;24.50;77.90;;;;;;6186485;23;20001;-90
2022/07/15 05:46:45;;;;;;;2.83;1.67;;;24.50;77.90;;;;;;6186496;23;20048;-90
2022/07/15 05:49:11;;;;;;;3.60;1.55;;;24.50;77.90;;;;;;6187782;23;20001;-90
2022/07/15 05:51:37;;;;;;;3.75;1.67;;;24.50;78.00;;;;;;6186162;23;20001;-91
2022/07/15 05:54:03;;;;;;;3.75;1.75;;;24.50;78.00;;;;;;6185475;23;20384;-90
2022/07/15 05:56:29;;;;;;;4.57;1.67;;;24.50;78.00;;;;;;6185614;23;20008;-90
2022/07/15 05:58:55;;;;;;;6.05;1.70;;;24.50;78.00;;;;;;6186348;23;20087;-93
2022/07/15 06:01:23;;;;;;;4.18;1.80;;;24.50;78.10;;;;;;6186621;23;20016;-90
2022/07/15 06:03:49;;;;;;;2.75;1.50;;;24.50;78.20;;;;;;6185709;23;20009;-91
2022/07/15 06:06:16;;;;;;;2.35;1.50;;;24.50;78.20;;;;;;6186366;23;20388;-91
2022/07/15 06:08:45;;;;;;;3.40;1.60;;;24.50;78.20;;;;;;6185906;23;20341;-91
2022/07/15 06:11:11;;;;;;;2.30;1.63;;;24.50;78.30;;;;;;6186524;23;20139;-91
2022/07/15 06:13:40;;;;;;;2.63;1.58;;;24.50;78.30;;;;;;6185987;23;20498;-90
2022/07/15 06:16:07;;;;;;;3.92;1.50;;;24.50;78.40;;;;;;6187270;23;20352;-90
2022/07/15 06:18:38;;;;;;;4.22;1.60;;;24.50;78.40;;;;;;6184997;23;20012;-90
2022/07/15 06:21:15;;;;;;;2.05;1.35;;;24.50;78.50;;;;;;6185691;23;20363;-91
2022/07/15 06:23:43;;;;;;;3.05;1.80;;;24.50;78.60;;;;;;6185361;23;20429;-91
2022/07/15 06:26:14;;;;;;;3.83;2.00;;;24.50;78.60;;;;;;6185862;23;20005;-91
2022/07/15 06:28:40;;;;;;;2.17;1.38;;;24.50;78.70;;;;;;6185860;23;20366;-90
2022/07/15 06:31:06;;;;;;;2.67;1.50;;;24.50;78.70;;;;;;6185627;23;20001;-90
2022/07/15 06:33:32;;;;;;;3.05;1.70;;;24.50;78.70;;;;;;6185463;23;20005;-90
2022/07/15 06:36:18;;;;;;;2.20;1.60;;;24.60;78.70;;;;;;6186045;23;20443;-90
2022/07/15 06:38:44;;;;;;;2.25;1.45;;;24.50;78.70;;;;;;6184947;23;20503;-91
2022/07/15 06:41:10;;;;;;;4.13;1.90;;;24.60;78.70;;;;;;6185679;23;20337;-91
2022/07/15 06:43:37;;;;;;;3.40;1.30;;;24.50;78.70;;;;;;6186009;23;20001;-91
2022/07/15 06:46:03;;;;;;;2.30;1.42;;;24.50;78.70;;;;;;6187054;23;20001;-91
2022/07/15 06:48:32;;;;;;;2.55;1.50;;;24.50;78.70;;;;;;6185763;23;20369;-91
2022/07/15 06:50:58;;;;;;;2.70;1.50;;;24.60;78.70;;;;;;6185591;23;20081;-90
2022/07/15 06:53:25;;;;;;;2.80;1.75;;;24.50;78.60;;;;;;6185634;23;20432;-91
2022/07/15 06:55:51;;;;;;;2.30;1.38;;;24.60;78.60;;;;;;6185594;23;20029;-91
2022/07/15 06:58:17;;;;;;;5.97;1.42;;;24.60;78.60;;;;;;6185506;23;20060;-91
2022/07/15 07:00:43;;;;;;;2.88;1.67;;;24.50;78.50;;;;;;6185722;23;20012;-90
2022/07/15 07:03:11;;;;;;;2.63;1.42;;;24.50;78.40;;;;;;6185361;23;20005;-91
2022/07/15 07:05:37;;;;;;;2.50;1.33;;;24.50;78.40;;;;;;6184935;23;20014;-91
2022/07/15 07:08:03;;;;;;;7.45;1.40;;;24.50;78.30;;;;;;6186328;23;20000;-91
2022/07/15 07:10:32;;;;;;;6.90;1.40;;;24.20;70.80;;;;;;6185485;23;20021;-91
2022/07/15 07:12:57;;;;;;;5.60;1.45;;;23.90;73.30;;;;;;6185217;23;20084;-91
2022/07/15 07:15:27;;;;;;;3.85;1.30;;;23.90;74.60;;;;;;6185437;23;20066;-91
2022/07/15 07:17:53;;;;;;;6.38;1.60;;;24.00;74.40;;;;;;6185279;23;20396;-91
2022/07/15 07:20:19;;;;;;;6.07;1.50;;;24.10;74.40;;;;;;6185005;23;20001;-91
2022/07/15 07:22:45;;;;;;;6.20;1.38;;;24.20;74.10;;;;;;6185617;23;20013;-91
2022/07/15 07:25:13;;;;;;;4.15;1.52;;;24.20;74.10;;;;;;6185304;23;20028;-91
2022/07/15 07:27:39;;;;;;;3.88;1.35;;;24.30;74.10;;;;;;6184903;23;20076;-91
2022/07/15 07:30:08;;;;;;;4.38;1.40;;;24.30;74.10;;;;;;6184901;23;20005;-92
2022/07/15 07:32:34;;;;;;;5.28;1.67;;;24.30;74.10;;;;;;6185185;23;20430;-91
2022/07/15 07:35:00;;;;;;;3.58;1.50;;;24.40;74.20;;;;;;6185020;23;20100;-91
2022/07/15 07:37:28;;;;;;;4.68;1.50;;;24.40;74.30;;;;;;6184916;23;20005;-91
2022/07/15 07:39:56;;;;;;;3.40;1.70;;;24.50;74.50;;;;;;6185586;23;20033;-92
2022/07/15 07:42:22;;;;;;;6.45;1.77;;;24.50;74.50;;;;;;6184660;23;20009;-91
2022/07/15 07:44:48;;;;;;;4.22;1.30;;;24.50;74.50;;;;;;6185261;23;20075;-91
2022/07/15 07:47:14;;;;;;;3.90;1.40;;;24.50;74.60;;;;;;6184848;23;20428;-91
2022/07/15 07:49:40;;;;;;;4.35;1.33;;;24.50;74.60;;;;;;6185349;23;20417;-92
2022/07/15 07:52:06;;;;;;;4.30;1.58;;;24.50;74.70;;;;;;6185448;23;20008;-91
2022/07/15 07:54:32;;;;;;;2.33;1.25;;;24.60;74.80;;;;;;6184955;23;20005;-92
2022/07/15 07:57:05;;;;;;;3.53;1.50;;;24.60;74.80;;;;;;6185523;23;20486;-91
2022/07/15 07:59:41;;;;;;;;;;;;;;;;;;;;;
2022/07/15 08:02:07;;;;;;;2.90;1.20;;;24.60;75.00;;;;;;6186077;23;20396;-91
2022/07/15 08:05:37;;;;;;;4.05;1.48;;;24.60;75.00;;;;;;6184790;23;20025;-91
2022/07/15 08:08:20;;;;;;;3.42;1.20;;;24.70;75.10;;;;;;6185023;23;20434;-91
2022/07/15 08:11:20;;;;;;;;;;;;;;;;;;;;;
2022/07/15 08:13:58;;;;;;;5.25;1.55;;;24.60;75.00;;;;;;6186362;23;20092;-92
2022/07/15 08:16:24;;;;;;;4.57;1.33;;;24.70;75.00;;;;;;6181404;23;20016;-92
2022/07/15 08:19:02;;;;;;;2.20;1.40;;;24.70;75.10;;;;;;6184659;23;20064;-91
2022/07/15 08:21:34;;;;;;;1.95;1.13;;;24.70;75.00;;;;;;6184646;23;20033;-91
2022/07/15 08:24:11;;;;;;;2.85;1.30;;;24.70;74.90;;;;;;6184680;23;20005;-91
2022/07/15 08:26:37;;;;;;;5.18;1.50;;;24.80;74.90;;;;;;6183934;23;20451;-91
2022/07/15 08:29:05;;;;;;;3.05;1.27;;;24.80;74.90;;;;;;6185095;23;20005;-92
2022/07/15 08:31:40;;;;;;;3.53;1.30;;;24.80;74.90;;;;;;6185031;23;20005;-92
2022/07/15 08:34:07;;;;;;;2.80;1.20;;;24.80;74.80;;;;;;6184744;23;20337;-92
2022/07/15 08:36:36;;;;;;;4.10;1.45;;;24.80;74.80;;;;;;6185510;23;20009;-93
2022/07/15 08:39:11;;;;;;;2.13;1.15;;;24.90;74.70;;;;;;6184705;23;20104;-93
2022/07/15 08:41:48;;;;;;;;;;;24.80;74.60;;;;;;6185504;23;20011;-92
2022/07/15 08:44:31;;;;;;;;;;;;;;;;;;;;;
2022/07/15 08:47:07;;;;;;;3.10;1.27;;;24.90;74.60;;;;;;6186282;23;20623;-93
2022/07/15 08:49:45;;;;;;;4.15;1.25;;;24.90;74.60;;;;;;6184769;23;20060;-93
2022/07/15 08:52:26;;;;;;;2.92;1.42;;;24.90;74.50;;;;;;6185112;23;19997;-93
2022/07/15 08:54:52;;;;;;;2.40;1.20;;;24.90;74.60;;;;;;6185402;23;20438;-93
2022/07/15 08:57:21;;;;;;;4.45;1.40;;;25.00;74.60;;;;;;6185032;23;20032;-94
2022/07/15 09:02:56;;;;;;;2.58;1.00;;;25.00;74.60;;;;;;6174063;23;20306;-91
2022/07/15 09:05:39;;;;;;;2.42;1.17;;;25.00;74.50;;;;;;6184559;23;20005;-93
2022/07/15 09:08:19;;;;;;;1.75;1.10;;;25.00;74.60;;;;;;6185089;23;19997;-92
2022/07/15 09:10:52;;;;;;;3.17;1.38;;;25.00;74.50;;;;;;6184846;23;20028;-92
2022/07/15 09:13:59;;;;;;;2.50;1.27;;;25.00;74.50;;;;;;6185049;23;20076;-92
2022/07/15 09:16:26;;;;;;;4.53;1.48;;;25.00;74.40;;;;;;6182239;23;20027;-92
2022/07/15 09:18:52;;;;;;;4.05;1.38;;;25.10;74.50;;;;;;6184504;23;20032;-92
2022/07/15 09:21:26;;;;;;;3.78;1.30;;;25.10;74.50;;;;;;6184027;23;20009;-92
2022/07/15 09:24:16;;;;;;;3.85;1.48;;;25.10;74.50;;;;;;6185628;23;20005;-93
2022/07/15 09:26:45;;;;;;;4.93;1.25;;;25.10;71.80;;;;;;6185229;23;20028;-92
2022/07/15 09:38:17;;;;;;;3.15;1.33;;;25.10;72.10;;;;;;6187904;23;20016;-94
2022/07/15 09:40:48;;;;;;;3.75;1.38;;;25.20;72.30;;;;;;6187093;23;20005;-92
2022/07/15 09:43:17;;;;;;;2.67;1.35;;;25.10;72.40;;;;;;6186611;23;20060;-92
2022/07/15 09:45:53;;;;;;;6.32;1.65;;;25.10;72.70;;;;;;6186477;23;20051;-93
2022/07/15 09:48:21;;;;;;;4.15;1.75;;;25.10;72.90;;;;;;6186689;23;20005;-93
2022/07/15 09:51:37;;;;;;;;;;;;;;;;;;;;;
2022/07/15 09:54:04;;;;;;;4.18;1.20;;;25.10;73.20;;;;;;6188051;23;20076;-93
2022/07/15 09:56:30;;;;;;;2.63;1.33;;;25.00;73.30;;;;;;6187006;23;20005;-93
2022/07/15 09:58:59;;;;;;;2.53;1.42;;;25.00;73.40;;;;;;6186566;23;20009;-93
2022/07/15 10:01:35;;;;;;;2.60;1.08;;;25.00;73.50;;;;;;6187037;23;20009;-94
2022/07/15 10:04:08;;;;;;;3.65;1.30;;;25.00;73.60;;;;;;6186968;23;20005;-93
2022/07/15 10:06:35;;;;;;;3.45;1.48;;;25.00;73.70;;;;;;6186298;23;20001;-92
2022/07/15 10:09:05;;;;;;;2.70;1.20;;;25.00;73.80;;;;;;6186753;23;20009;-93
2022/07/15 10:11:36;;;;;;;3.10;1.38;;;25.00;73.90;;;;;;6185940;23;20362;-92
2022/07/15 10:14:23;;;;;;;3.78;1.20;;;25.00;74.00;;;;;;6186554;23;20061;-93
2022/07/15 10:17:15;;;;;;;3.08;1.73;;;25.10;74.00;;;;;;6186385;23;20040;-93
2022/07/15 10:19:46;;;;;;;2.47;1.20;;;25.10;74.00;;;;;;6130975;23;20005;-92
2022/07/15 10:22:42;;;;;;;2.88;1.20;;;25.10;74.00;;;;;;6186665;23;20028;-93
2022/07/15 10:25:33;;;;;;;3.25;1.48;;;25.20;74.00;;;;;;6186534;23;20005;-93
2022/07/15 10:28:23;;;;;;;3.08;1.33;;;25.20;74.00;;;;;;6186567;23;20001;-93
2022/07/15 10:31:26;;;;;;;1.85;1.10;;;25.20;73.90;;;;;;6186047;23;20001;-92
2022/07/15 10:37:33;;;;;;;4.72;1.50;;;25.40;70.80;;;;;;6189114;23;20012;-93
2022/07/15 10:40:15;;;;;;;;;;;25.40;71.50;;;;;;6187014;23;20001;-93
2022/07/15 10:43:27;;;;;;;8.65;1.60;;;25.40;71.60;;;;;;6186066;23;19900;-93
2022/07/15 10:46:19;;;;;;;3.25;1.58;;;25.50;72.00;;;;;;6166107;23;20032;-93
2022/07/15 10:58:40;;;;;;;3.83;1.30;;;25.50;72.50;;;;;;6155517;23;20009;-92
2022/07/15 11:01:36;;;;;;;;;;;;;;;;;;;;;
2022/07/15 11:04:24;;;;;;;3.67;1.38;;;25.60;72.70;;;;;;6187556;23;20083;-93
2022/07/15 11:07:07;;;;;;;2.67;1.48;;;25.60;72.70;;;;;;6185927;23;20005;-92
2022/07/15 11:10:17;;;;;;;4.47;1.50;;;25.70;72.70;;;;;;6185420;23;20005;-93
2022/07/15 11:12:51;;;;;;;2.50;1.30;;;25.70;72.70;;;;;;6186327;23;20033;-94
2022/07/15 11:16:08;;;;;;;3.33;1.40;;;25.70;72.80;;;;;;6185944;23;20021;-93
2022/07/15 11:22:56;;;;;;;;;;;;;;;;;;;;;
2022/07/15 11:25:30;;;;;;;2.67;1.50;;;25.60;73.00;;;;;;6063723;23;20015;-93
2022/07/15 11:28:42;;;;;;;2.30;1.33;;;25.60;73.00;;;;;;6186189;23;20001;-92
2022/07/15 11:31:12;;;;;;;4.05;1.50;;;25.70;73.10;;;;;;6186238;23;20005;-93
2022/07/15 11:33:41;;;;;;;2.60;1.10;;;25.70;73.00;;;;;;6186163;23;19997;-93
2022/07/15 11:36:34;;;;;;;3.95;1.50;;;25.70;73.10;;;;;;6186233;23;20426;-92
2022/07/15 11:46:10;;;;;;;;;;;;;;;;;;;;;
2022/07/15 11:55:19;;;;;;;4.07;1.50;;;25.80;73.20;;;;;;6186732;23;20001;-93
2022/07/15 11:58:12;;;;;;;2.17;1.50;;;25.80;73.00;;;;;;6185973;23;20004;-93
2022/07/15 12:00:38;;;;;;;19.88;2.63;;;25.80;73.10;;;;;;6171733;23;20084;-90
2022/07/15 12:03:17;;;;;;;7.68;1.80;;;25.70;70.00;;;;;;6185409;23;20018;-90
2022/07/15 12:05:42;;;;;;;22.88;3.50;;;25.90;70.10;;;;;;6185074;23;20012;-90
2022/07/15 12:08:11;;;;;;;10.13;2.05;;;25.80;69.30;;;;;;6184372;23;20005;-90
2022/07/15 12:10:40;;;;;;;6.18;1.60;;;25.70;69.60;;;;;;6184549;23;20433;-90
2022/07/15 12:13:05;;;;;;;5.70;1.60;;;25.70;69.90;;;;;;6184788;23;20005;-89
2022/07/15 12:15:35;;;;;;;8.15;1.80;;;25.60;69.90;;;;;;6184293;23;20024;-90
2022/07/15 12:18:02;;;;;;;38.80;3.85;;;25.80;70.60;;;;;;6184504;23;20036;-90
2022/07/15 12:20:28;;;;;;;12.00;2.50;;;25.90;70.50;;;;;;6185294;23;20139;-89
2022/07/15 12:23:08;;;;;;;7.13;1.83;;;26.00;70.30;;;;;;6184479;23;20009;-88
2022/07/15 12:25:35;;;;;;;3.45;1.75;;;26.20;70.30;;;;;;6186771;23;20036;-90
2022/07/15 12:28:04;;;;;;;7.22;1.90;;;26.30;70.10;;;;;;6184601;23;20040;-92
2022/07/15 12:30:38;;;;;;;7.22;1.73;;;26.30;69.70;;;;;;6185210;23;20357;-91
2022/07/15 12:33:36;;;;;;;10.63;2.10;;;26.40;69.90;;;;;;6185899;23;20028;-91
2022/07/15 12:36:20;;;;;;;5.80;1.73;;;26.40;70.10;;;;;;6157185;23;20008;-90
2022/07/15 12:39:12;;;;;;;7.90;1.50;;;26.40;69.80;;;;;;6185066;23;20278;-90
2022/07/15 12:41:43;;;;;;;6.05;1.80;;;26.40;69.90;;;;;;6185024;23;20036;-91
2022/07/15 12:44:40;;;;;;;434.98;25.60;;;26.50;69.30;;;;;;6185211;23;20009;-93
2022/07/15 12:47:30;;;;;;;;;;;;;;;;;;;;;
2022/07/15 12:50:19;;;;;;;169.10;10.30;;;26.20;69.90;;;;;;6186649;23;20080;-93
2022/07/15 12:56:14;;;;;;;115.38;9.75;;;26.10;70.40;;;;;;6187059;23;19997;-93
2022/07/15 12:59:05;;;;;;;96.68;7.95;;;26.10;70.70;;;;;;6185944;23;20009;-94
2022/07/15 13:02:13;;;;;;;97.97;7.80;;;26.10;70.90;;;;;;6185461;23;19997;-92
2022/07/15 13:05:39;;;;;;;85.68;7.50;;;26.10;71.00;;;;;;6170799;23;20495;-93
2022/07/15 13:09:04;;;;;;;89.65;6.97;;;26.20;71.30;;;;;;6188241;23;20005;-93
2022/07/15 13:25:57;;;;;;;50.72;4.95;;;26.20;71.70;;;;;;6039191;23;20039;-92
2022/07/15 13:28:52;;;;;;;29.30;4.03;;;26.30;71.90;;;;;;6033664;23;20007;-93
2022/07/15 13:34:24;;;;;;;38.35;4.75;;;26.20;72.00;;;;;;6159242;23;19900;-93
2022/07/15 13:37:07;;;;;;;;;;;;;;;;;;;;;
2022/07/15 13:39:37;;;;;;;32.72;4.28;;;26.30;72.20;;;;;;6187672;23;20485;-93
2022/07/15 13:42:24;;;;;;;33.25;3.25;;;26.30;73.00;;;;;;6187059;23;20012;-93
2022/07/15 13:45:50;;;;;;;29.92;3.63;;;26.30;72.20;;;;;;6186997;23;20011;-93
2022/07/15 13:48:25;;;;;;;26.08;3.50;;;26.30;72.20;;;;;;6044951;23;20051;-94
2022/07/15 13:53:40;;;;;;;24.65;3.13;;;26.30;72.30;;;;;;6068533;23;19930;-93
2022/07/15 14:00:33;;;;;;;;;;;;;;;;;;;;;
2022/07/15 14:25:20;;;;;;;;;;;;;;;;;;;;;
2022/07/15 14:35:52;;;;;;;9.27;2.17;;;26.20;73.00;;;;;;5846208;24;20011;-93
2022/07/15 14:38:37;;;;;;;9.27;1.80;;;26.20;73.10;;;;;;5825102;24;20446;-91
2022/07/15 14:41:12;;;;;;;8.82;1.38;;;26.20;72.80;;;;;;5886854;24;20009;-90
2022/07/15 14:44:12;;;;;;;3.95;1.38;;;26.20;69.10;;;;;;5955699;23;20014;-91
2022/07/15 14:46:38;;;;;;;3.78;1.30;;;26.20;69.20;;;;;;6064528;23;20468;-90
2022/07/15 16:10:37;;;;;;;6.65;1.50;;;25.10;85.50;;;;;;5103526;27;20133;-59
2022/07/15 16:13:02;;;;;;;13.52;1.60;;;24.60;86.80;;;;;;5086685;28;20115;-59
2022/07/15 16:15:28;;;;;;;11.88;1.55;;;24.20;88.10;;;;;;5088251;28;20122;-60
2022/07/15 16:17:54;;;;;;;7.70;1.50;;;23.80;88.60;;;;;;5088329;28;20020;-59
2022/07/15 16:20:20;;;;;;;5.43;1.75;;;23.60;88.40;;;;;;5089986;28;20039;-59
2022/07/15 16:22:55;;;;;;;8.35;1.38;;;23.40;90.00;;;;;;5084706;28;20549;-59
2022/07/15 16:36:17;;;;;;;4.78;1.45;;;24.60;73.30;;;;;;5111636;27;20420;-37
2022/07/15 16:56:54;;;;;;;8.88;1.50;;;25.90;70.00;;;;;;5133294;27;20509;-28